In Rescue
 
Open Full Screen Window  High Contrast Mode
October 19, 2020 6:51 PM CDT
Weather Information
Wind Direction
  ---
Wind Speed
  00 kt (0 mph)
Wind Gust
  00 kt (0 mph)
Altimeter
30.21 in
Visibility
10 SM
Temperature
-01° C
30° F
Dewpoint
-07° C
19° F
Humidity
64%
1hr Rain Fall
00.00 in.
24hr Rain Fall
00.00 in.
Sky Condition
Overcast @ 4,900 ft
VFR

METAR K3N8 192351Z AUTO 00000KT 10SM OVC049 M01/M07 A3021 RMK AO2 T10101068 11003 21011

FAA Disclaimer: The data displayed is for advisory purposes only and is not to be used for flight planning or operations.